sensor_id;sensor_type;location;lat;lon;timestamp;P1;durP1;ratioP1;P2;durP2;ratioP2
5945;SDS011;2998;48.206;16.394;2023-05-16T00:00:34;5.47;;;5.17;;
5945;SDS011;2998;48.206;16.394;2023-05-16T00:03:04;10.53;;;5.17;;
5945;SDS011;2998;48.206;16.394;2023-05-16T00:05:34;6.40;;;5.87;;
5945;SDS011;2998;48.206;16.394;2023-05-16T00:08:04;9.40;;;7.67;;
5945;SDS011;2998;48.206;16.394;2023-05-16T00:14:47;10.10;;;8.00;;
5945;SDS011;2998;48.206;16.394;2023-05-16T00:17:17;9.73;;;7.20;;
5945;SDS011;2998;48.206;16.394;2023-05-16T00:24:07;7.87;;;7.07;;
5945;SDS011;2998;48.206;16.394;2023-05-16T00:26:40;10.53;;;6.80;;
5945;SDS011;2998;48.206;16.394;2023-05-16T00:29:10;7.27;;;6.63;;
5945;SDS011;2998;48.206;16.394;2023-05-16T00:31:39;10.73;;;6.93;;
5945;SDS011;2998;48.206;16.394;2023-05-16T00:34:09;10.83;;;7.10;;
5945;SDS011;2998;48.206;16.394;2023-05-16T00:36:38;9.53;;;7.90;;
5945;SDS011;2998;48.206;16.394;2023-05-16T00:39:09;14.73;;;7.43;;
5945;SDS011;2998;48.206;16.394;2023-05-16T00:41:38;9.17;;;6.87;;
5945;SDS011;2998;48.206;16.394;2023-05-16T00:44:07;8.37;;;7.00;;
5945;SDS011;2998;48.206;16.394;2023-05-16T00:46:37;10.67;;;6.47;;
5945;SDS011;2998;48.206;16.394;2023-05-16T00:49:06;13.33;;;7.73;;
5945;SDS011;2998;48.206;16.394;2023-05-16T00:51:35;7.03;;;6.33;;
5945;SDS011;2998;48.206;16.394;2023-05-16T00:54:05;6.30;;;5.80;;
5945;SDS011;2998;48.206;16.394;2023-05-16T00:56:36;8.07;;;7.27;;
5945;SDS011;2998;48.206;16.394;2023-05-16T00:59:06;7.33;;;6.67;;
5945;SDS011;2998;48.206;16.394;2023-05-16T01:05:47;7.77;;;7.07;;
5945;SDS011;2998;48.206;16.394;2023-05-16T01:08:17;7.87;;;7.10;;
5945;SDS011;2998;48.206;16.394;2023-05-16T01:15:16;6.70;;;6.00;;
5945;SDS011;2998;48.206;16.394;2023-05-16T01:17:52;7.10;;;6.60;;
5945;SDS011;2998;48.206;16.394;2023-05-16T01:25:00;7.77;;;7.00;;
5945;SDS011;2998;48.206;16.394;2023-05-16T01:31:47;7.93;;;7.23;;
5945;SDS011;2998;48.206;16.394;2023-05-16T01:34:17;8.80;;;7.90;;
5945;SDS011;2998;48.206;16.394;2023-05-16T01:40:58;23.33;;;12.93;;
5945;SDS011;2998;48.206;16.394;2023-05-16T01:43:32;22.47;;;12.13;;
5945;SDS011;2998;48.206;16.394;2023-05-16T01:50:16;9.00;;;7.13;;
5945;SDS011;2998;48.206;16.394;2023-05-16T01:57:12;9.70;;;6.40;;
5945;SDS011;2998;48.206;16.394;2023-05-16T01:59:42;6.77;;;6.17;;
5945;SDS011;2998;48.206;16.394;2023-05-16T02:06:31;17.47;;;10.00;;
5945;SDS011;2998;48.206;16.394;2023-05-16T02:09:01;14.33;;;9.57;;
5945;SDS011;2998;48.206;16.394;2023-05-16T02:11:30;7.57;;;6.40;;
5945;SDS011;2998;48.206;16.394;2023-05-16T02:13:59;8.83;;;6.57;;
5945;SDS011;2998;48.206;16.394;2023-05-16T02:16:28;7.93;;;6.70;;
5945;SDS011;2998;48.206;16.394;2023-05-16T02:18:58;7.53;;;6.83;;
5945;SDS011;2998;48.206;16.394;2023-05-16T02:21:27;7.13;;;6.53;;
5945;SDS011;2998;48.206;16.394;2023-05-16T02:23:58;10.20;;;9.30;;
5945;SDS011;2998;48.206;16.394;2023-05-16T02:26:27;11.83;;;10.67;;
5945;SDS011;2998;48.206;16.394;2023-05-16T02:28:57;17.80;;;11.07;;
5945;SDS011;2998;48.206;16.394;2023-05-16T02:31:26;26.63;;;21.00;;
5945;SDS011;2998;48.206;16.394;2023-05-16T02:42:59;19.17;;;14.43;;
5945;SDS011;2998;48.206;16.394;2023-05-16T02:45:29;15.40;;;13.73;;
5945;SDS011;2998;48.206;16.394;2023-05-16T02:52:17;14.80;;;12.40;;
5945;SDS011;2998;48.206;16.394;2023-05-16T02:54:46;14.20;;;12.70;;
5945;SDS011;2998;48.206;16.394;2023-05-16T02:57:36;12.77;;;10.50;;
5945;SDS011;2998;48.206;16.394;2023-05-16T03:00:08;10.00;;;9.00;;
5945;SDS011;2998;48.206;16.394;2023-05-16T03:02:38;17.03;;;14.23;;
5945;SDS011;2998;48.206;16.394;2023-05-16T03:05:08;11.17;;;9.97;;
5945;SDS011;2998;48.206;16.394;2023-05-16T03:07:39;9.93;;;8.80;;
5945;SDS011;2998;48.206;16.394;2023-05-16T03:10:08;11.30;;;8.80;;
5945;SDS011;2998;48.206;16.394;2023-05-16T03:12:38;9.63;;;8.53;;
5945;SDS011;2998;48.206;16.394;2023-05-16T03:15:09;8.67;;;7.87;;
5945;SDS011;2998;48.206;16.394;2023-05-16T03:17:38;14.23;;;12.60;;
5945;SDS011;2998;48.206;16.394;2023-05-16T03:20:08;17.30;;;12.60;;
5945;SDS011;2998;48.206;16.394;2023-05-16T03:22:38;11.97;;;9.93;;
5945;SDS011;2998;48.206;16.394;2023-05-16T03:25:07;8.40;;;7.77;;
5945;SDS011;2998;48.206;16.394;2023-05-16T03:27:37;8.93;;;8.13;;
5945;SDS011;2998;48.206;16.394;2023-05-16T03:34:14;7.77;;;6.97;;
5945;SDS011;2998;48.206;16.394;2023-05-16T03:36:44;8.90;;;8.10;;
5945;SDS011;2998;48.206;16.394;2023-05-16T03:43:14;10.10;;;9.20;;
5945;SDS011;2998;48.206;16.394;2023-05-16T03:45:44;10.63;;;9.53;;
5945;SDS011;2998;48.206;16.394;2023-05-16T03:48:13;10.27;;;9.17;;
5945;SDS011;2998;48.206;16.394;2023-05-16T03:50:44;8.73;;;7.80;;
5945;SDS011;2998;48.206;16.394;2023-05-16T03:53:13;10.37;;;8.20;;
5945;SDS011;2998;48.206;16.394;2023-05-16T03:55:43;9.07;;;8.17;;
5945;SDS011;2998;48.206;16.394;2023-05-16T03:58:14;9.80;;;8.90;;
5945;SDS011;2998;48.206;16.394;2023-05-16T04:05:02;11.37;;;9.63;;
5945;SDS011;2998;48.206;16.394;2023-05-16T04:07:33;9.07;;;8.27;;
5945;SDS011;2998;48.206;16.394;2023-05-16T04:14:21;7.20;;;6.70;;
5945;SDS011;2998;48.206;16.394;2023-05-16T04:16:50;8.80;;;7.70;;
5945;SDS011;2998;48.206;16.394;2023-05-16T04:19:19;8.23;;;7.43;;
5945;SDS011;2998;48.206;16.394;2023-05-16T04:21:48;8.20;;;7.40;;
5945;SDS011;2998;48.206;16.394;2023-05-16T04:24:20;8.97;;;8.07;;
5945;SDS011;2998;48.206;16.394;2023-05-16T04:26:52;9.90;;;7.93;;
5945;SDS011;2998;48.206;16.394;2023-05-16T04:29:22;7.80;;;7.10;;
5945;SDS011;2998;48.206;16.394;2023-05-16T04:31:52;7.73;;;7.17;;
5945;SDS011;2998;48.206;16.394;2023-05-16T04:34:22;8.23;;;7.53;;
5945;SDS011;2998;48.206;16.394;2023-05-16T04:45:58;10.43;;;8.97;;
5945;SDS011;2998;48.206;16.394;2023-05-16T04:48:27;11.33;;;7.77;;
5945;SDS011;2998;48.206;16.394;2023-05-16T04:55:15;19.43;;;12.53;;
5945;SDS011;2998;48.206;16.394;2023-05-16T04:57:44;11.17;;;8.90;;
5945;SDS011;2998;48.206;16.394;2023-05-16T05:00:14;7.53;;;6.87;;
5945;SDS011;2998;48.206;16.394;2023-05-16T05:02:46;8.43;;;7.37;;
5945;SDS011;2998;48.206;16.394;2023-05-16T05:05:16;8.80;;;6.30;;
5945;SDS011;2998;48.206;16.394;2023-05-16T05:07:45;9.10;;;8.20;;
5945;SDS011;2998;48.206;16.394;2023-05-16T05:10:15;7.63;;;7.03;;
5945;SDS011;2998;48.206;16.394;2023-05-16T05:12:44;9.80;;;6.60;;
5945;SDS011;2998;48.206;16.394;2023-05-16T05:15:14;6.83;;;6.33;;
5945;SDS011;2998;48.206;16.394;2023-05-16T05:22:10;6.00;;;5.60;;
5945;SDS011;2998;48.206;16.394;2023-05-16T05:24:40;8.30;;;7.60;;
5945;SDS011;2998;48.206;16.394;2023-05-16T05:31:30;7.67;;;6.57;;
5945;SDS011;2998;48.206;16.394;2023-05-16T05:34:01;7.57;;;6.97;;
5945;SDS011;2998;48.206;16.394;2023-05-16T05:40:50;6.63;;;6.10;;
5945;SDS011;2998;48.206;16.394;2023-05-16T05:43:19;6.40;;;5.17;;
5945;SDS011;2998;48.206;16.394;2023-05-16T05:45:48;5.80;;;5.30;;
5945;SDS011;2998;48.206;16.394;2023-05-16T05:48:18;6.77;;;4.83;;
5945;SDS011;2998;48.206;16.394;2023-05-16T05:50:47;4.97;;;4.67;;
5945;SDS011;2998;48.206;16.394;2023-05-16T05:53:16;5.30;;;4.80;;
5945;SDS011;2998;48.206;16.394;2023-05-16T05:55:46;5.90;;;5.40;;
5945;SDS011;2998;48.206;16.394;2023-05-16T06:02:22;16.47;;;9.43;;
5945;SDS011;2998;48.206;16.394;2023-05-16T06:04:52;4.53;;;4.23;;
5945;SDS011;2998;48.206;16.394;2023-05-16T06:11:40;3.97;;;3.77;;
5945;SDS011;2998;48.206;16.394;2023-05-16T06:14:13;4.20;;;3.90;;
5945;SDS011;2998;48.206;16.394;2023-05-16T06:16:43;4.60;;;4.20;;
5945;SDS011;2998;48.206;16.394;2023-05-16T06:19:13;4.33;;;3.93;;
5945;SDS011;2998;48.206;16.394;2023-05-16T06:21:43;16.80;;;11.87;;
5945;SDS011;2998;48.206;16.394;2023-05-16T06:24:12;4.73;;;4.30;;
5945;SDS011;2998;48.206;16.394;2023-05-16T06:26:41;5.27;;;4.77;;
5945;SDS011;2998;48.206;16.394;2023-05-16T06:29:16;4.30;;;3.90;;
5945;SDS011;2998;48.206;16.394;2023-05-16T06:31:45;8.03;;;4.30;;
5945;SDS011;2998;48.206;16.394;2023-05-16T06:34:16;4.33;;;4.13;;
5945;SDS011;2998;48.206;16.394;2023-05-16T06:36:45;3.90;;;3.60;;
5945;SDS011;2998;48.206;16.394;2023-05-16T06:39:14;5.90;;;4.43;;
5945;SDS011;2998;48.206;16.394;2023-05-16T06:41:44;5.47;;;4.97;;
5945;SDS011;2998;48.206;16.394;2023-05-16T06:48:31;4.63;;;4.23;;
5945;SDS011;2998;48.206;16.394;2023-05-16T06:51:01;5.50;;;5.20;;
5945;SDS011;2998;48.206;16.394;2023-05-16T06:57:49;6.67;;;5.67;;
5945;SDS011;2998;48.206;16.394;2023-05-16T07:00:19;6.03;;;5.53;;
5945;SDS011;2998;48.206;16.394;2023-05-16T07:07:09;7.63;;;6.93;;
5945;SDS011;2998;48.206;16.394;2023-05-16T07:13:51;6.87;;;6.47;;
5945;SDS011;2998;48.206;16.394;2023-05-16T07:16:21;8.40;;;7.70;;
5945;SDS011;2998;48.206;16.394;2023-05-16T07:23:11;8.97;;;8.13;;
5945;SDS011;2998;48.206;16.394;2023-05-16T07:25:41;8.80;;;8.03;;
5945;SDS011;2998;48.206;16.394;2023-05-16T07:28:10;11.50;;;8.23;;
5945;SDS011;2998;48.206;16.394;2023-05-16T07:30:40;9.70;;;8.80;;
5945;SDS011;2998;48.206;16.394;2023-05-16T07:33:10;9.33;;;8.53;;
5945;SDS011;2998;48.206;16.394;2023-05-16T07:35:40;8.70;;;7.90;;
5945;SDS011;2998;48.206;16.394;2023-05-16T07:38:09;11.47;;;10.47;;
5945;SDS011;2998;48.206;16.394;2023-05-16T07:40:39;12.03;;;9.33;;
5945;SDS011;2998;48.206;16.394;2023-05-16T07:43:12;11.17;;;10.17;;
5945;SDS011;2998;48.206;16.394;2023-05-16T07:45:41;12.80;;;11.03;;
5945;SDS011;2998;48.206;16.394;2023-05-16T07:48:11;11.00;;;9.90;;
5945;SDS011;2998;48.206;16.394;2023-05-16T07:50:41;11.00;;;10.00;;
5945;SDS011;2998;48.206;16.394;2023-05-16T07:53:10;10.93;;;9.93;;
5945;SDS011;2998;48.206;16.394;2023-05-16T07:59:54;11.60;;;10.40;;
5945;SDS011;2998;48.206;16.394;2023-05-16T08:02:23;12.53;;;10.70;;
5945;SDS011;2998;48.206;16.394;2023-05-16T08:09:09;11.07;;;9.97;;
5945;SDS011;2998;48.206;16.394;2023-05-16T08:11:38;11.23;;;10.13;;
5945;SDS011;2998;48.206;16.394;2023-05-16T08:14:11;13.43;;;9.47;;
5945;SDS011;2998;48.206;16.394;2023-05-16T08:16:42;12.67;;;11.37;;
5945;SDS011;2998;48.206;16.394;2023-05-16T08:19:11;12.23;;;10.77;;
5945;SDS011;2998;48.206;16.394;2023-05-16T08:25:59;11.70;;;10.60;;
5945;SDS011;2998;48.206;16.394;2023-05-16T08:28:29;12.10;;;11.00;;
5945;SDS011;2998;48.206;16.394;2023-05-16T08:35:25;14.07;;;12.67;;
5945;SDS011;2998;48.206;16.394;2023-05-16T08:37:54;14.27;;;12.77;;
5945;SDS011;2998;48.206;16.394;2023-05-16T08:44:42;17.27;;;14.30;;
5945;SDS011;2998;48.206;16.394;2023-05-16T08:51:26;17.17;;;14.67;;
5945;SDS011;2998;48.206;16.394;2023-05-16T08:53:58;17.20;;;15.40;;
5945;SDS011;2998;48.206;16.394;2023-05-16T09:00:43;16.37;;;14.53;;
5945;SDS011;2998;48.206;16.394;2023-05-16T09:03:13;17.40;;;13.73;;
5945;SDS011;2998;48.206;16.394;2023-05-16T09:05:43;14.80;;;13.50;;
5945;SDS011;2998;48.206;16.394;2023-05-16T09:08:33;13.70;;;12.10;;
5945;SDS011;2998;48.206;16.394;2023-05-16T09:15:20;12.17;;;11.13;;
5945;SDS011;2998;48.206;16.394;2023-05-16T09:17:49;10.60;;;9.70;;
5945;SDS011;2998;48.206;16.394;2023-05-16T09:20:19;11.77;;;10.77;;
5945;SDS011;2998;48.206;16.394;2023-05-16T09:27:08;12.27;;;11.07;;
5945;SDS011;2998;48.206;16.394;2023-05-16T09:29:39;12.70;;;11.33;;
5945;SDS011;2998;48.206;16.394;2023-05-16T09:36:27;9.97;;;9.17;;
5945;SDS011;2998;48.206;16.394;2023-05-16T09:38:56;10.00;;;9.20;;
5945;SDS011;2998;48.206;16.394;2023-05-16T09:41:26;12.17;;;9.53;;
5945;SDS011;2998;48.206;16.394;2023-05-16T09:43:56;11.17;;;10.17;;
5945;SDS011;2998;48.206;16.394;2023-05-16T09:46:25;10.67;;;9.87;;
5945;SDS011;2998;48.206;16.394;2023-05-16T09:48:55;12.70;;;11.40;;
5945;SDS011;2998;48.206;16.394;2023-05-16T09:51:24;12.07;;;10.97;;
5945;SDS011;2998;48.206;16.394;2023-05-16T09:53:54;10.40;;;9.50;;
5945;SDS011;2998;48.206;16.394;2023-05-16T09:56:26;12.87;;;11.17;;
5945;SDS011;2998;48.206;16.394;2023-05-16T09:58:58;12.20;;;11.10;;
5945;SDS011;2998;48.206;16.394;2023-05-16T10:01:28;13.30;;;12.00;;
5945;SDS011;2998;48.206;16.394;2023-05-16T10:08:16;13.30;;;12.10;;
5945;SDS011;2998;48.206;16.394;2023-05-16T10:10:45;14.63;;;13.33;;
5945;SDS011;2998;48.206;16.394;2023-05-16T10:17:38;12.60;;;11.40;;
5945;SDS011;2998;48.206;16.394;2023-05-16T10:20:10;10.40;;;9.47;;
5945;SDS011;2998;48.206;16.394;2023-05-16T10:22:41;10.50;;;9.53;;
5945;SDS011;2998;48.206;16.394;2023-05-16T10:26:08;11.53;;;10.07;;
5945;SDS011;2998;48.206;16.394;2023-05-16T10:33:07;15.87;;;14.20;;
5945;SDS011;2998;48.206;16.394;2023-05-16T10:40:06;20.60;;;17.10;;
5945;SDS011;2998;48.206;16.394;2023-05-16T10:42:36;22.90;;;19.37;;
5945;SDS011;2998;48.206;16.394;2023-05-16T10:49:22;116.40;;;70.97;;
5945;SDS011;2998;48.206;16.394;2023-05-16T10:52:02;32.47;;;27.40;;
5945;SDS011;2998;48.206;16.394;2023-05-16T10:58:46;30.10;;;25.50;;
5945;SDS011;2998;48.206;16.394;2023-05-16T11:01:16;29.70;;;25.60;;
5945;SDS011;2998;48.206;16.394;2023-05-16T11:08:02;34.00;;;29.93;;
5945;SDS011;2998;48.206;16.394;2023-05-16T11:14:57;33.70;;;29.20;;
5945;SDS011;2998;48.206;16.394;2023-05-16T11:17:27;31.07;;;27.77;;
5945;SDS011;2998;48.206;16.394;2023-05-16T11:24:29;34.07;;;27.93;;
5945;SDS011;2998;48.206;16.394;2023-05-16T11:26:59;33.13;;;28.43;;
5945;SDS011;2998;48.206;16.394;2023-05-16T11:29:30;35.07;;;29.07;;
5945;SDS011;2998;48.206;16.394;2023-05-16T11:32:01;36.00;;;30.80;;
5945;SDS011;2998;48.206;16.394;2023-05-16T11:34:34;35.50;;;31.13;;
5945;SDS011;2998;48.206;16.394;2023-05-16T11:37:05;40.63;;;31.73;;
5945;SDS011;2998;48.206;16.394;2023-05-16T11:39:39;34.77;;;29.50;;
5945;SDS011;2998;48.206;16.394;2023-05-16T11:50:11;34.03;;;28.10;;
5945;SDS011;2998;48.206;16.394;2023-05-16T11:52:42;34.13;;;29.73;;
5945;SDS011;2998;48.206;16.394;2023-05-16T11:55:14;33.93;;;29.67;;
5945;SDS011;2998;48.206;16.394;2023-05-16T11:58:05;34.20;;;29.70;;
5945;SDS011;2998;48.206;16.394;2023-05-16T12:04:40;30.90;;;27.33;;
5945;SDS011;2998;48.206;16.394;2023-05-16T12:11:30;33.40;;;24.97;;
5945;SDS011;2998;48.206;16.394;2023-05-16T12:13:59;24.07;;;21.23;;
5945;SDS011;2998;48.206;16.394;2023-05-16T12:20:47;24.73;;;22.20;;
5945;SDS011;2998;48.206;16.394;2023-05-16T12:23:16;20.50;;;18.50;;
5945;SDS011;2998;48.206;16.394;2023-05-16T12:25:46;21.70;;;19.63;;
5945;SDS011;2998;48.206;16.394;2023-05-16T12:28:17;25.30;;;21.47;;
5945;SDS011;2998;48.206;16.394;2023-05-16T12:30:46;19.03;;;16.80;;
5945;SDS011;2998;48.206;16.394;2023-05-16T12:33:16;18.53;;;16.83;;
5945;SDS011;2998;48.206;16.394;2023-05-16T12:35:46;22.33;;;17.87;;
5945;SDS011;2998;48.206;16.394;2023-05-16T12:38:18;18.73;;;16.83;;
5945;SDS011;2998;48.206;16.394;2023-05-16T12:40:47;17.40;;;15.70;;
5945;SDS011;2998;48.206;16.394;2023-05-16T12:43:20;17.60;;;15.93;;
5945;SDS011;2998;48.206;16.394;2023-05-16T12:45:50;18.40;;;16.60;;
5945;SDS011;2998;48.206;16.394;2023-05-16T12:52:47;23.70;;;21.20;;
5945;SDS011;2998;48.206;16.394;2023-05-16T12:55:17;16.47;;;14.97;;
5945;SDS011;2998;48.206;16.394;2023-05-16T13:02:01;15.20;;;13.80;;
5945;SDS011;2998;48.206;16.394;2023-05-16T13:04:30;16.73;;;15.03;;
5945;SDS011;2998;48.206;16.394;2023-05-16T13:07:00;13.17;;;11.97;;
5945;SDS011;2998;48.206;16.394;2023-05-16T13:09:30;13.73;;;12.40;;
5945;SDS011;2998;48.206;16.394;2023-05-16T13:12:00;15.80;;;13.07;;
5945;SDS011;2998;48.206;16.394;2023-05-16T13:14:30;13.37;;;12.20;;
5945;SDS011;2998;48.206;16.394;2023-05-16T13:17:01;13.70;;;12.50;;
5945;SDS011;2998;48.206;16.394;2023-05-16T13:19:31;14.50;;;13.10;;
5945;SDS011;2998;48.206;16.394;2023-05-16T13:22:01;13.20;;;11.90;;
5945;SDS011;2998;48.206;16.394;2023-05-16T13:24:31;12.27;;;11.17;;
5945;SDS011;2998;48.206;16.394;2023-05-16T13:27:00;15.07;;;13.50;;
5945;SDS011;2998;48.206;16.394;2023-05-16T13:29:29;21.77;;;13.77;;
5945;SDS011;2998;48.206;16.394;2023-05-16T13:32:00;12.30;;;11.30;;
5945;SDS011;2998;48.206;16.394;2023-05-16T13:38:49;13.40;;;12.23;;
5945;SDS011;2998;48.206;16.394;2023-05-16T13:41:19;13.47;;;12.10;;
5945;SDS011;2998;48.206;16.394;2023-05-16T13:48:09;14.43;;;13.10;;
5945;SDS011;2998;48.206;16.394;2023-05-16T13:50:38;14.03;;;12.63;;
5945;SDS011;2998;48.206;16.394;2023-05-16T13:53:10;16.30;;;14.30;;
5945;SDS011;2998;48.206;16.394;2023-05-16T13:55:39;13.50;;;12.30;;
5945;SDS011;2998;48.206;16.394;2023-05-16T13:58:08;11.80;;;10.80;;
5945;SDS011;2998;48.206;16.394;2023-05-16T14:00:37;10.83;;;9.90;;
5945;SDS011;2998;48.206;16.394;2023-05-16T14:03:13;10.93;;;10.03;;
5945;SDS011;2998;48.206;16.394;2023-05-16T14:05:43;12.53;;;11.43;;
5945;SDS011;2998;48.206;16.394;2023-05-16T14:08:12;11.97;;;10.97;;
5945;SDS011;2998;48.206;16.394;2023-05-16T14:10:41;10.73;;;9.83;;
5945;SDS011;2998;48.206;16.394;2023-05-16T14:13:11;9.60;;;8.77;;
5945;SDS011;2998;48.206;16.394;2023-05-16T14:15:40;9.83;;;9.10;;
5945;SDS011;2998;48.206;16.394;2023-05-16T14:18:09;12.33;;;11.17;;
5945;SDS011;2998;48.206;16.394;2023-05-16T14:24:58;12.27;;;11.27;;
5945;SDS011;2998;48.206;16.394;2023-05-16T14:27:28;13.77;;;12.03;;
5945;SDS011;2998;48.206;16.394;2023-05-16T14:34:22;14.03;;;12.70;;
5945;SDS011;2998;48.206;16.394;2023-05-16T14:36:52;12.40;;;11.37;;
5945;SDS011;2998;48.206;16.394;2023-05-16T14:39:21;11.40;;;10.37;;
5945;SDS011;2998;48.206;16.394;2023-05-16T14:41:52;13.07;;;11.83;;
5945;SDS011;2998;48.206;16.394;2023-05-16T14:44:21;10.53;;;9.60;;
5945;SDS011;2998;48.206;16.394;2023-05-16T14:51:09;9.73;;;8.83;;
5945;SDS011;2998;48.206;16.394;2023-05-16T14:53:38;7.47;;;6.97;;
5945;SDS011;2998;48.206;16.394;2023-05-16T15:00:29;8.40;;;7.70;;
5945;SDS011;2998;48.206;16.394;2023-05-16T15:02:59;8.63;;;7.93;;
5945;SDS011;2998;48.206;16.394;2023-05-16T15:09:47;11.97;;;9.67;;
5945;SDS011;2998;48.206;16.394;2023-05-16T15:12:17;14.90;;;8.93;;
5945;SDS011;2998;48.206;16.394;2023-05-16T15:14:48;7.23;;;6.63;;
5945;SDS011;2998;48.206;16.394;2023-05-16T15:17:18;6.90;;;6.40;;
5945;SDS011;2998;48.206;16.394;2023-05-16T15:19:48;8.53;;;7.83;;
5945;SDS011;2998;48.206;16.394;2023-05-16T15:26:43;10.27;;;6.77;;
5945;SDS011;2998;48.206;16.394;2023-05-16T15:29:13;9.77;;;8.90;;
5945;SDS011;2998;48.206;16.394;2023-05-16T15:35:57;8.83;;;8.13;;
5945;SDS011;2998;48.206;16.394;2023-05-16T15:38:26;10.00;;;9.10;;
5945;SDS011;2998;48.206;16.394;2023-05-16T15:45:09;9.83;;;8.40;;
5945;SDS011;2998;48.206;16.394;2023-05-16T15:51:59;11.80;;;10.60;;
5945;SDS011;2998;48.206;16.394;2023-05-16T15:54:28;10.73;;;9.77;;
5945;SDS011;2998;48.206;16.394;2023-05-16T16:01:22;11.83;;;10.80;;
5945;SDS011;2998;48.206;16.394;2023-05-16T16:03:52;10.50;;;9.57;;
5945;SDS011;2998;48.206;16.394;2023-05-16T16:06:21;11.03;;;10.13;;
5945;SDS011;2998;48.206;16.394;2023-05-16T16:08:52;10.97;;;10.07;;
5945;SDS011;2998;48.206;16.394;2023-05-16T16:11:21;11.17;;;10.07;;
5945;SDS011;2998;48.206;16.394;2023-05-16T16:13:51;9.67;;;9.07;;
5945;SDS011;2998;48.206;16.394;2023-05-16T16:16:20;12.10;;;10.37;;
5945;SDS011;2998;48.206;16.394;2023-05-16T16:18:50;11.17;;;10.27;;
5945;SDS011;2998;48.206;16.394;2023-05-16T16:21:20;10.37;;;9.20;;
5945;SDS011;2998;48.206;16.394;2023-05-16T16:23:52;10.33;;;9.43;;
5945;SDS011;2998;48.206;16.394;2023-05-16T16:26:21;9.40;;;8.50;;
5945;SDS011;2998;48.206;16.394;2023-05-16T16:28:51;9.47;;;8.77;;
5945;SDS011;2998;48.206;16.394;2023-05-16T16:31:20;9.90;;;9.20;;
5945;SDS011;2998;48.206;16.394;2023-05-16T16:33:49;9.63;;;8.93;;
5945;SDS011;2998;48.206;16.394;2023-05-16T16:36:18;8.60;;;8.00;;
5945;SDS011;2998;48.206;16.394;2023-05-16T16:47:38;13.43;;;10.80;;
5945;SDS011;2998;48.206;16.394;2023-05-16T16:50:08;11.83;;;10.90;;
5945;SDS011;2998;48.206;16.394;2023-05-16T16:56:52;9.97;;;8.90;;
5945;SDS011;2998;48.206;16.394;2023-05-16T17:03:42;11.40;;;9.40;;
5945;SDS011;2998;48.206;16.394;2023-05-16T17:06:11;10.97;;;9.80;;
5945;SDS011;2998;48.206;16.394;2023-05-16T17:12:59;9.83;;;8.80;;
5945;SDS011;2998;48.206;16.394;2023-05-16T17:15:33;10.00;;;9.00;;
5945;SDS011;2998;48.206;16.394;2023-05-16T17:18:02;10.80;;;9.80;;
5945;SDS011;2998;48.206;16.394;2023-05-16T17:20:35;12.20;;;10.93;;
5945;SDS011;2998;48.206;16.394;2023-05-16T17:23:04;12.53;;;11.37;;
5945;SDS011;2998;48.206;16.394;2023-05-16T17:25:33;10.70;;;9.63;;
5945;SDS011;2998;48.206;16.394;2023-05-16T17:28:03;11.30;;;10.30;;
5945;SDS011;2998;48.206;16.394;2023-05-16T17:30:32;11.53;;;10.40;;
5945;SDS011;2998;48.206;16.394;2023-05-16T17:33:02;12.20;;;11.20;;
5945;SDS011;2998;48.206;16.394;2023-05-16T17:39:51;13.57;;;12.23;;
5945;SDS011;2998;48.206;16.394;2023-05-16T17:42:20;17.53;;;14.70;;
5945;SDS011;2998;48.206;16.394;2023-05-16T17:49:08;13.73;;;12.40;;
5945;SDS011;2998;48.206;16.394;2023-05-16T17:51:45;18.77;;;16.77;;
5945;SDS011;2998;48.206;16.394;2023-05-16T17:58:35;13.00;;;11.90;;
5945;SDS011;2998;48.206;16.394;2023-05-16T18:05:29;14.27;;;12.97;;
5945;SDS011;2998;48.206;16.394;2023-05-16T18:07:59;17.37;;;12.33;;
5945;SDS011;2998;48.206;16.394;2023-05-16T18:14:43;15.73;;;14.07;;
5945;SDS011;2998;48.206;16.394;2023-05-16T18:17:13;15.47;;;13.90;;
5945;SDS011;2998;48.206;16.394;2023-05-16T18:24:01;18.60;;;16.70;;
5945;SDS011;2998;48.206;16.394;2023-05-16T18:30:45;15.27;;;13.87;;
5945;SDS011;2998;48.206;16.394;2023-05-16T18:33:15;15.53;;;14.17;;
5945;SDS011;2998;48.206;16.394;2023-05-16T18:40:12;14.70;;;13.40;;
5945;SDS011;2998;48.206;16.394;2023-05-16T18:42:41;15.93;;;14.53;;
5945;SDS011;2998;48.206;16.394;2023-05-16T18:45:11;15.77;;;14.27;;
5945;SDS011;2998;48.206;16.394;2023-05-16T18:48:48;16.73;;;15.20;;
5945;SDS011;2998;48.206;16.394;2023-05-16T18:55:35;17.33;;;14.80;;
5945;SDS011;2998;48.206;16.394;2023-05-16T18:58:04;20.20;;;15.73;;
5945;SDS011;2998;48.206;16.394;2023-05-16T19:04:54;21.70;;;15.90;;
5945;SDS011;2998;48.206;16.394;2023-05-16T19:11:39;23.77;;;17.80;;
5945;SDS011;2998;48.206;16.394;2023-05-16T19:14:09;21.63;;;15.43;;
5945;SDS011;2998;48.206;16.394;2023-05-16T19:20:59;16.83;;;15.13;;
5945;SDS011;2998;48.206;16.394;2023-05-16T19:23:30;18.20;;;16.40;;
5945;SDS011;2998;48.206;16.394;2023-05-16T19:25:59;17.20;;;15.53;;
5945;SDS011;2998;48.206;16.394;2023-05-16T19:28:30;16.70;;;15.20;;
5945;SDS011;2998;48.206;16.394;2023-05-16T19:31:00;23.43;;;17.57;;
5945;SDS011;2998;48.206;16.394;2023-05-16T19:33:30;26.83;;;24.23;;
5945;SDS011;2998;48.206;16.394;2023-05-16T19:36:01;23.27;;;19.60;;
5945;SDS011;2998;48.206;16.394;2023-05-16T19:38:31;20.73;;;17.00;;
5945;SDS011;2998;48.206;16.394;2023-05-16T19:41:01;20.00;;;18.10;;
5945;SDS011;2998;48.206;16.394;2023-05-16T19:43:31;22.07;;;19.67;;
5945;SDS011;2998;48.206;16.394;2023-05-16T19:46:01;21.80;;;18.50;;
5945;SDS011;2998;48.206;16.394;2023-05-16T19:52:50;20.80;;;18.80;;
5945;SDS011;2998;48.206;16.394;2023-05-16T19:55:19;36.37;;;26.27;;
5945;SDS011;2998;48.206;16.394;2023-05-16T20:02:08;25.60;;;20.57;;
5945;SDS011;2998;48.206;16.394;2023-05-16T20:04:37;22.20;;;19.90;;
5945;SDS011;2998;48.206;16.394;2023-05-16T20:11:21;20.97;;;18.83;;
5945;SDS011;2998;48.206;16.394;2023-05-16T20:18:08;15.07;;;13.50;;
5945;SDS011;2998;48.206;16.394;2023-05-16T20:20:38;16.57;;;15.00;;
5945;SDS011;2998;48.206;16.394;2023-05-16T20:27:27;24.30;;;18.80;;
5945;SDS011;2998;48.206;16.394;2023-05-16T20:29:57;22.20;;;16.30;;
5945;SDS011;2998;48.206;16.394;2023-05-16T20:36:46;8.07;;;7.37;;
5945;SDS011;2998;48.206;16.394;2023-05-16T20:47:48;3.03;;;2.93;;
5945;SDS011;2998;48.206;16.394;2023-05-16T20:50:18;2.60;;;2.50;;
5945;SDS011;2998;48.206;16.394;2023-05-16T20:57:05;3.10;;;1.53;;
5945;SDS011;2998;48.206;16.394;2023-05-16T20:59:34;1.80;;;1.70;;
5945;SDS011;2998;48.206;16.394;2023-05-16T21:02:04;1.83;;;1.73;;
5945;SDS011;2998;48.206;16.394;2023-05-16T21:04:37;2.50;;;2.40;;
5945;SDS011;2998;48.206;16.394;2023-05-16T21:07:07;2.40;;;2.17;;
5945;SDS011;2998;48.206;16.394;2023-05-16T21:09:37;3.97;;;2.00;;
5945;SDS011;2998;48.206;16.394;2023-05-16T21:12:07;1.80;;;1.70;;
5945;SDS011;2998;48.206;16.394;2023-05-16T21:18:48;1.57;;;1.47;;
5945;SDS011;2998;48.206;16.394;2023-05-16T21:21:19;0.90;;;0.90;;
5945;SDS011;2998;48.206;16.394;2023-05-16T21:28:07;1.50;;;1.43;;
5945;SDS011;2998;48.206;16.394;2023-05-16T21:30:36;1.40;;;1.30;;
5945;SDS011;2998;48.206;16.394;2023-05-16T21:33:06;1.40;;;1.40;;
5945;SDS011;2998;48.206;16.394;2023-05-16T21:35:36;1.13;;;1.13;;
5945;SDS011;2998;48.206;16.394;2023-05-16T21:38:07;1.40;;;1.40;;
5945;SDS011;2998;48.206;16.394;2023-05-16T21:40:36;1.70;;;1.60;;
5945;SDS011;2998;48.206;16.394;2023-05-16T21:43:06;1.20;;;1.20;;
5945;SDS011;2998;48.206;16.394;2023-05-16T21:45:36;1.60;;;1.50;;
5945;SDS011;2998;48.206;16.394;2023-05-16T21:48:06;1.60;;;1.50;;
5945;SDS011;2998;48.206;16.394;2023-05-16T21:50:36;1.30;;;1.20;;
5945;SDS011;2998;48.206;16.394;2023-05-16T21:53:05;1.50;;;1.40;;
5945;SDS011;2998;48.206;16.394;2023-05-16T21:55:35;1.40;;;1.40;;
5945;SDS011;2998;48.206;16.394;2023-05-16T21:58:04;1.80;;;1.70;;